Time;durP1;ratioP1;P1;durP2;ratioP2;P2;SDS_P1;SDS_P2;PMS_P1;PMS_P2;Temp;Humidity;BMP_temperature;BMP_pressure;BME280_temperature;BME280_humidity;BME280_pressure;Samples;Min_cycle;Max_cycle;Signal;HPM_P1;HPM_P2
2023/02/24 00:01:59;;;;;;;;;34.00;31.33;;;;;11.92;100.00;100994.59;5061425;28;45311;-81
2023/02/24 00:04:31;;;;;;;;;36.33;32.67;;;;;11.93;100.00;100990.91;5060276;28;45405;-79
2023/02/24 00:06:58;;;;;;;;;39.33;35.67;;;;;11.88;100.00;100987.94;5061764;28;45235;-79
2023/02/24 00:09:25;;;;;;;;;42.33;37.33;;;;;11.89;100.00;100994.94;5061267;28;46260;-79
2023/02/24 00:11:57;;;;;;;;;43.00;34.67;;;;;11.79;100.00;100991.66;5060161;28;45485;-80
2023/02/24 00:14:26;;;;;;;;;33.00;27.67;;;;;11.79;100.00;100989.81;5073020;27;45413;-80
2023/02/24 00:16:52;;;;;;;;;36.33;33.00;;;;;11.79;100.00;100987.16;5051405;28;45271;-80
2023/02/24 00:19:21;;;;;;;;;42.33;34.00;;;;;11.73;100.00;100988.69;5061040;28;45408;-79
2023/02/24 00:21:47;;;;;;;;;45.33;37.00;;;;;11.71;100.00;100976.56;5061376;28;45215;-79
2023/02/24 00:24:13;;;;;;;;;38.00;34.00;;;;;11.71;100.00;100965.91;5061488;28;45336;-79
2023/02/24 00:26:39;;;;;;;;;38.00;33.00;;;;;11.75;100.00;100980.53;5061206;28;45395;-80
2023/02/24 00:29:07;;;;;;;;;36.33;33.67;;;;;11.76;100.00;100986.69;5061024;28;45340;-79
2023/02/24 00:31:33;;;;;;;;;41.33;34.67;;;;;11.72;100.00;100975.56;5061095;28;45370;-80
2023/02/24 00:34:00;;;;;;;;;41.75;35.00;;;;;11.73;100.00;100972.72;5059948;28;45253;-80
2023/02/24 00:36:28;;;;;;;;;41.33;35.00;;;;;11.73;100.00;100969.22;5076757;28;46186;-79
2023/02/24 00:38:56;;;;;;;;;37.33;33.33;;;;;11.77;100.00;100969.72;5076429;28;47242;-79
2023/02/24 00:41:28;;;;;;;;;42.00;37.00;;;;;11.79;100.00;100973.03;5076507;28;45943;-79
2023/02/24 00:43:54;;;;;;;;;42.33;36.33;;;;;11.76;100.00;100970.72;5060740;28;45322;-79
2023/02/24 00:46:24;;;;;;;;;43.00;37.00;;;;;11.69;100.00;100973.25;5060669;28;47177;-79
2023/02/24 00:48:56;;;;;;;;;43.00;34.00;;;;;11.65;100.00;100975.44;5060886;28;45322;-79
2023/02/24 00:51:25;;;;;;;;;34.67;31.33;;;;;11.61;100.00;100968.78;5060298;28;45366;-80
2023/02/24 00:53:55;;;;;;;;;45.00;36.67;;;;;11.61;100.00;100966.13;5076613;28;45499;-79
2023/02/24 00:56:22;;;;;;;;;50.67;37.00;;;;;11.60;100.00;100969.81;5060662;28;45583;-79
2023/02/24 00:58:47;;;;;;;;;40.67;33.33;;;;;11.57;100.00;100964.81;5060228;28;45611;-79
2023/02/24 01:01:16;;;;;;;;;38.00;32.67;;;;;11.60;100.00;100964.47;5059182;28;45521;-79
2023/02/24 01:03:42;;;;;;;;;39.33;34.33;;;;;11.51;100.00;100955.72;5060764;28;45351;-79
2023/02/24 01:06:11;;;;;;;;;44.00;36.00;;;;;11.54;100.00;100965.16;5076009;28;46943;-78
2023/02/24 01:08:39;;;;;;;;;45.00;37.33;;;;;11.49;100.00;100949.72;5076101;28;47568;-79
2023/02/24 01:13:48;;;;;;;;;40.50;34.75;;;;;11.43;100.00;100943.28;5060131;28;45422;-79
2023/02/24 01:16:17;;;;;;;;;42.75;35.00;;;;;11.44;100.00;100952.91;5060335;28;45635;-79
2023/02/24 01:18:44;;;;;;;;;44.25;36.25;;;;;11.44;100.00;100958.22;5060484;28;45440;-78
2023/02/24 01:21:11;;;;;;;;;42.75;34.75;;;;;11.36;100.00;100937.84;5060380;28;45326;-79
2023/02/24 01:23:37;;;;;;;;;51.00;41.75;;;;;11.43;100.00;100948.59;5060086;28;45383;-79
2023/02/24 01:26:02;;;;;;;;;47.75;39.00;;;;;11.40;100.00;100943.63;5059331;28;45276;-78
2023/02/24 01:28:29;;;;;;;;;55.75;42.50;;;;;11.38;100.00;100940.31;5059725;28;45315;-79
2023/02/24 01:30:54;;;;;;;;;50.50;40.00;;;;;11.37;100.00;100933.31;5060456;28;45340;-79
2023/02/24 01:33:20;;;;;;;;;49.50;41.00;;;;;11.41;100.00;100933.81;5059905;28;45450;-78
2023/02/24 01:35:46;;;;;;;;;52.75;43.00;;;;;11.39;100.00;100920.69;5060342;28;45547;-79
2023/02/24 01:38:12;;;;;;;;;54.50;45.25;;;;;11.41;100.00;100928.50;5060271;28;45636;-79
2023/02/24 01:40:37;;;;;;;;;56.00;46.00;;;;;11.38;100.00;100927.03;5060047;28;45315;-79
2023/02/24 01:43:07;;;;;;;;;54.50;43.00;;;;;11.38;100.00;100932.34;5075604;28;45373;-79
2023/02/24 01:45:38;;;;;;;;;51.00;43.50;;;;;11.36;100.00;100929.00;5060077;28;45360;-79
2023/02/24 01:48:08;;;;;;;;;59.50;47.50;;;;;11.31;100.00;100910.91;5059827;28;46248;-79
2023/02/24 01:50:36;;;;;;;;;60.00;44.50;;;;;11.28;100.00;100919.25;5068820;28;45333;-79
2023/02/24 01:53:05;;;;;;;;;55.75;44.00;;;;;11.31;100.00;100921.56;5062760;27;45350;-79
2023/02/24 01:55:50;;;;;;;;;63.00;47.75;;;;;11.28;100.00;100919.25;5059454;28;45494;-78
2023/02/24 01:58:26;;;;;;;;;56.00;45.00;;;;;11.19;100.00;100906.97;5058900;28;45436;-79
2023/02/24 02:00:51;;;;;;;;;56.25;45.50;;;;;11.21;100.00;100908.47;5058395;28;45269;-79
2023/02/24 02:03:33;;;;;;;;;59.25;46.75;;;;;11.22;100.00;100902.16;5071733;28;45358;-79
2023/02/24 02:06:02;;;;;;;;;63.25;49.25;;;;;11.20;100.00;100903.34;5054208;28;45472;-80
2023/02/24 02:08:28;;;;;;;;;63.50;48.25;;;;;11.18;100.00;100906.16;5075085;28;47271;-79
2023/02/24 02:10:57;;;;;;;;;59.00;47.25;;;;;11.22;100.00;100901.31;5059786;28;46636;-80
2023/02/24 02:13:25;;;;;;;;;61.00;46.00;;;;;11.22;100.00;100896.81;5075079;28;45357;-79
2023/02/24 02:16:01;;;;;;;;;60.00;47.75;;;;;11.26;100.00;100904.47;5059244;28;45739;-79
2023/02/24 02:19:02;;;;;;;;;60.25;47.00;;;;;11.28;100.00;100902.47;5058079;28;48181;-80
2023/02/24 02:21:28;;;;;;;;;59.25;48.25;;;;;11.26;100.00;100902.63;5059231;28;45457;-79
2023/02/24 02:24:07;;;;;;;;;58.50;46.50;;;;;11.21;100.00;100886.34;5074761;28;45329;-79
2023/02/24 02:26:57;;;;;;;;;58.50;45.00;;;;;11.23;100.00;100887.03;5075079;28;46249;-79
2023/02/24 02:29:46;;;;;;;;;60.00;47.50;;;;;11.17;100.00;100883.25;5059068;28;46390;-80
2023/02/24 02:32:50;;;;;;;;;56.75;43.50;;;;;11.22;100.00;100882.69;5057963;28;45375;-79
2023/02/24 02:35:17;;;;;;;;;62.25;47.75;;;;;11.22;100.00;100883.53;5059263;28;45448;-80
2023/02/24 02:38:13;;;;;;;;;61.75;47.00;;;;;11.23;100.00;100879.03;5059006;28;45454;-80
2023/02/24 02:40:56;;;;;;;;;54.25;44.25;;;;;11.16;100.00;100867.44;5040222;28;47172;-80
2023/02/24 02:43:38;;;;;;;;;59.00;47.00;;;;;11.17;100.00;100864.63;5058605;28;45521;-79
2023/02/24 02:46:19;;;;;;;;;64.75;47.50;;;;;11.14;100.00;100853.47;5074710;28;45447;-79
2023/02/24 02:48:48;;;;;;;;;56.00;44.50;;;;;11.19;100.00;100864.41;5057612;28;46272;-79
2023/02/24 02:51:19;;;;;;;;;58.25;46.00;;;;;11.15;100.00;100855.97;5059032;28;45362;-79
2023/02/24 02:54:03;;;;;;;;;61.75;48.50;;;;;11.09;100.00;100849.53;5078302;27;45981;-79
2023/02/24 02:56:39;;;;;;;;;62.25;47.00;;;;;11.16;100.00;100851.50;5059068;28;45323;-80
2023/02/24 02:59:08;;;;;;;;;59.75;47.50;;;;;11.09;100.00;100840.69;5058887;28;45291;-79
2023/02/24 03:01:40;;;;;;;;;58.25;46.00;;;;;11.07;100.00;100838.22;5058552;28;45401;-79
2023/02/24 03:04:11;;;;;;;;;59.50;47.25;;;;;11.12;100.00;100837.69;5074507;28;45286;-79
2023/02/24 03:06:44;;;;;;;;;55.00;45.25;;;;;11.12;100.00;100840.34;5058907;28;45308;-79
2023/02/24 03:09:34;;;;;;;;;55.25;45.00;;;;;11.20;100.00;100850.13;5058874;28;45358;-79
2023/02/24 03:12:09;;;;;;;;;53.75;45.00;;;;;11.12;100.00;100840.34;5058846;28;46260;-79
2023/02/24 03:14:40;;;;;;;;;60.75;48.00;;;;;11.16;100.00;100846.97;5057223;28;45527;-80
2023/02/24 03:17:11;;;;;;;;;60.50;47.00;;;;;11.19;100.00;100859.94;5071246;27;45583;-80
2023/02/24 03:19:38;;;;;;;;;51.75;41.00;;;;;11.17;100.00;100846.00;5058419;28;45860;-83
2023/02/24 03:22:12;;;;;;;;;60.75;48.00;;;;;11.13;100.00;100852.63;5074006;28;48643;-79
2023/02/24 03:24:43;;;;;;;;;56.50;44.25;;;;;11.09;100.00;100851.34;5058646;28;45432;-80
2023/02/24 03:27:30;;;;;;;;;60.00;46.75;;;;;11.20;100.00;100850.94;5074037;28;45390;-80
2023/02/24 03:30:06;;;;;;;;;56.50;46.00;;;;;11.17;100.00;100846.00;5058625;28;45471;-79
2023/02/24 03:32:42;;;;;;;;;56.50;46.25;;;;;11.19;100.00;100857.25;5073819;28;46417;-80
2023/02/24 03:35:08;;;;;;;;;56.75;45.50;;;;;11.20;100.00;100860.75;5058276;28;45403;-79
2023/02/24 03:37:35;;;;;;;;;58.25;45.25;;;;;11.16;100.00;100854.16;5074150;28;45255;-79
2023/02/24 03:40:13;;;;;;;;;63.75;48.25;;;;;11.18;100.00;100863.59;5058683;28;45524;-79
2023/02/24 03:42:42;;;;;;;;;59.25;47.00;;;;;11.10;100.00;100851.16;5058055;28;45462;-79
2023/02/24 03:45:08;;;;;;;;;57.75;45.00;;;;;11.17;100.00;100859.28;5058183;28;45418;-79
2023/02/24 03:47:34;;;;;;;;;60.25;46.25;;;;;11.22;100.00;100862.25;5058554;28;45275;-79
2023/02/24 03:49:59;;;;;;;;;58.00;45.50;;;;;11.24;100.00;100849.59;5059756;28;45697;-79
2023/02/24 03:52:40;;;;;;;;;53.00;44.25;;;;;11.27;100.00;100852.91;5067885;28;47823;-79
2023/02/24 03:55:43;;;;;;;;;59.25;48.25;;;;;11.24;100.00;100848.75;5059671;28;45208;-79
2023/02/24 03:58:21;;;;;;;;;63.25;49.00;;;;;11.26;100.00;100845.94;5061470;28;45277;-79
2023/02/24 04:01:05;;;;;;;;;59.00;45.50;;;;;11.25;100.00;100837.09;5061620;28;45383;-80
2023/02/24 04:03:38;;;;;;;;;57.00;47.00;;;;;11.26;100.00;100837.94;5077044;28;48282;-79
2023/02/24 04:06:18;;;;;;;;;57.75;46.25;;;;;11.19;100.00;100838.66;5061543;28;45339;-79
2023/02/24 04:09:07;;;;;;;;;60.00;48.00;;;;;11.16;100.00;100835.53;5061754;28;45314;-79
2023/02/24 04:11:46;;;;;;;;;57.00;44.75;;;;;11.10;100.00;100826.38;5077166;28;47292;-80
2023/02/24 04:14:36;;;;;;;;;55.00;44.75;;;;;11.09;100.00;100816.75;5076668;28;47897;-79
2023/02/24 04:17:19;;;;;;;;;58.75;46.50;;;;;11.09;100.00;100819.44;5047376;28;45294;-79
2023/02/24 04:19:48;;;;;;;;;59.00;48.25;;;;;11.03;100.00;100805.00;5064674;27;45319;-79
2023/02/24 04:22:19;;;;;;;;;60.50;47.75;;;;;11.04;100.00;100800.53;5059712;28;45342;-79
2023/02/24 04:24:49;;;;;;;;;66.25;51.00;;;;;11.09;100.00;100804.31;5059873;28;48361;-79
2023/02/24 04:27:17;;;;;;;;;55.50;46.00;;;;;11.09;100.00;100798.97;5059593;28;45714;-79
2023/02/24 04:29:49;;;;;;;;;57.25;45.25;;;;;11.06;100.00;100791.34;5061295;28;45440;-79
2023/02/24 04:32:20;;;;;;;;;59.25;47.00;;;;;11.07;100.00;100794.81;5076703;28;46438;-79
2023/02/24 04:34:45;;;;;;;;;59.50;47.00;;;;;11.05;100.00;100787.03;5060865;28;46424;-79
2023/02/24 04:37:12;;;;;;;;;58.25;45.50;;;;;10.99;100.00;100777.09;5059806;28;45344;-78
2023/02/24 04:39:37;;;;;;;;;52.50;43.00;;;;;10.94;100.00;100768.81;5061284;28;45326;-79
2023/02/24 04:42:05;;;;;;;;;59.00;48.50;;;;;11.03;100.00;100774.91;5060628;28;45259;-79
2023/02/24 04:44:31;;;;;;;;;61.50;49.25;;;;;10.99;100.00;100771.78;5060756;28;45508;-79
2023/02/24 04:46:57;;;;;;;;;59.25;48.25;;;;;11.01;100.00;100771.63;5076294;28;45314;-78
2023/02/24 04:49:23;;;;;;;;;59.00;47.25;;;;;11.03;100.00;100788.22;5076661;28;45460;-79
2023/02/24 04:51:50;;;;;;;;;62.50;50.00;;;;;10.97;100.00;100779.94;5059056;28;47475;-79
2023/02/24 04:54:17;;;;;;;;;60.00;48.50;;;;;11.00;100.00;100789.41;5060936;28;46169;-79
2023/02/24 04:56:49;;;;;;;;;57.25;45.50;;;;;10.97;100.00;100774.63;5076119;28;45951;-80
2023/02/24 04:59:16;;;;;;;;;58.00;47.25;;;;;10.94;100.00;100767.00;5060636;28;45324;-79
2023/02/24 05:01:43;;;;;;;;;58.00;47.50;;;;;11.01;100.00;100774.28;5075846;28;47424;-79
2023/02/24 05:04:10;;;;;;;;;62.00;49.00;;;;;10.97;100.00;100771.13;5059282;28;47294;-79
2023/02/24 05:06:42;;;;;;;;;58.00;46.00;;;;;10.97;100.00;100769.31;5060397;28;45342;-80
2023/02/24 05:09:12;;;;;;;;;60.50;49.00;;;;;10.97;100.00;100771.13;5060686;28;45369;-78
2023/02/24 05:11:45;;;;;;;;;59.25;45.50;;;;;10.98;100.00;100767.47;5060449;28;45342;-79
2023/02/24 05:14:15;;;;;;;;;61.00;49.00;;;;;10.96;100.00;100772.94;5060075;28;45386;-79
2023/02/24 05:16:42;;;;;;;;;64.00;49.00;;;;;10.93;100.00;100761.84;5076006;28;45397;-79
2023/02/24 05:21:52;;;;;;;;;61.50;50.00;;;;;10.93;100.00;100759.19;5060194;28;45418;-79
2023/02/24 05:24:18;;;;;;;;;60.00;47.00;;;;;10.96;100.00;100762.31;5060092;28;46277;-79
2023/02/24 05:26:43;;;;;;;;;60.00;46.25;;;;;10.90;100.00;100755.06;5075886;28;45846;-79
2023/02/24 05:29:10;;;;;;;;;59.25;46.00;;;;;10.84;100.00;100751.25;5075745;28;45320;-80
2023/02/24 05:31:36;;;;;;;;;59.00;48.00;;;;;10.81;100.00;100754.25;5075927;28;46065;-79
2023/02/24 05:34:05;;;;;;;;;61.25;49.75;;;;;10.77;100.00;100744.19;5058437;28;46897;-79
2023/02/24 05:36:35;;;;;;;;;58.50;47.00;;;;;10.83;100.00;100759.41;5060206;28;45507;-79
2023/02/24 05:39:06;;;;;;;;;59.50;46.75;;;;;10.83;100.00;100756.75;5075623;28;45228;-81
2023/02/24 05:41:34;;;;;;;;;62.50;49.00;;;;;10.76;100.00;100746.00;5059988;28;45355;-78
2023/02/24 05:44:07;;;;;;;;;61.75;47.50;;;;;10.70;100.00;100741.38;5058345;28;46480;-79
2023/02/24 05:46:36;;;;;;;;;64.75;51.25;;;;;10.76;100.00;100755.78;5074352;28;45421;-80
2023/02/24 05:49:10;;;;;;;;;55.75;42.00;;;;;10.64;100.00;100737.59;5060163;28;45218;-80
2023/02/24 05:51:37;;;;;;;;;60.50;47.50;;;;;10.68;100.00;100748.69;5059588;28;45410;-78
2023/02/24 05:54:09;;;;;;;;;56.00;47.00;;;;;10.67;100.00;100742.56;5058448;28;48129;-78
2023/02/24 05:56:37;;;;;;;;;61.25;47.00;;;;;10.65;100.00;100739.25;5059826;28;45216;-78
2023/02/24 05:59:07;;;;;;;;;61.25;49.00;;;;;10.60;100.00;100725.66;5059651;28;45331;-77
2023/02/24 06:01:36;;;;;;;;;62.75;49.00;;;;;10.58;100.00;100719.69;5058208;28;47114;-76
2023/02/24 06:04:06;;;;;;;;;62.25;49.00;;;;;10.62;100.00;100734.28;5059552;28;45610;-78
2023/02/24 06:06:39;;;;;;;;;59.00;47.00;;;;;10.54;100.00;100719.19;5059586;28;45342;-79
2023/02/24 06:09:14;;;;;;;;;60.75;47.25;;;;;10.62;100.00;100728.16;5075320;28;45532;-77
2023/02/24 06:11:41;;;;;;;;;64.25;49.00;;;;;10.60;100.00;100721.16;5058770;28;45405;-78
2023/02/24 06:14:08;;;;;;;;;60.25;48.25;;;;;10.57;100.00;100720.69;5057521;28;48061;-77
2023/02/24 06:16:36;;;;;;;;;58.50;44.25;;;;;10.63;100.00;100733.28;5059218;28;45298;-76
2023/02/24 06:19:02;;;;;;;;;59.00;47.50;;;;;10.61;100.00;100732.63;5059050;28;45288;-78
2023/02/24 06:21:28;;;;;;;;;62.25;47.75;;;;;10.58;100.00;100720.53;5058760;28;45302;-78
2023/02/24 06:23:56;;;;;;;;;58.75;48.00;;;;;10.62;100.00;100728.16;5057372;28;48089;-78
2023/02/24 06:26:23;;;;;;;;;55.25;45.25;;;;;10.57;100.00;100720.69;5059645;28;45662;-78
2023/02/24 06:28:52;;;;;;;;;64.25;50.50;;;;;10.55;100.00;100714.72;5073774;28;45621;-79
2023/02/24 06:31:20;;;;;;;;;64.50;49.75;;;;;10.58;100.00;100717.88;5069602;28;46085;-79
2023/02/24 06:33:45;;;;;;;;;53.75;45.25;;;;;10.54;100.00;100716.53;5054054;28;47119;-76
2023/02/24 06:36:13;;;;;;;;;65.75;50.00;;;;;10.44;100.00;100715.91;5073856;28;45369;-79
2023/02/24 06:38:39;;;;;;;;;76.50;59.50;;;;;10.43;100.00;100722.22;5057705;28;45326;-77
2023/02/24 06:41:09;;;;;;;;;102.25;89.00;;;;;10.40;100.00;100722.56;5058973;28;45499;-78
2023/02/24 06:43:39;;;;;;;;;59.50;47.25;;;;;10.45;100.00;100729.03;5058818;28;46173;-73
2023/02/24 06:46:06;;;;;;;;;81.75;67.25;;;;;10.44;100.00;100724.72;5056437;28;46125;-74
2023/02/24 06:48:32;;;;;;;;;63.50;49.25;;;;;10.43;100.00;100714.25;5056989;28;45497;-74
2023/02/24 06:51:12;;;;;;;;;84.75;73.75;;;;;10.46;100.00;100722.75;5058978;28;45418;-76
2023/02/24 06:53:41;;;;;;;;;57.75;45.00;;;;;10.45;100.00;100721.06;5058954;28;45454;-75
2023/02/24 06:56:16;;;;;;;;;63.00;49.75;;;;;10.46;100.00;100725.41;5074369;28;45877;-75
2023/02/24 06:58:49;;;;;;;;;72.50;55.00;;;;;10.53;100.00;100735.34;5058695;28;45638;-75
2023/02/24 07:01:17;;;;;;;;;70.50;53.00;;;;;10.54;100.00;100736.97;5059099;28;45428;-74
2023/02/24 07:04:02;;;;;;;;;60.00;48.50;;;;;10.49;100.00;100732.19;5058572;28;46372;-73
2023/02/24 07:06:30;;;;;;;;;58.75;47.00;;;;;10.50;100.00;100731.19;5058768;28;45208;-74
2023/02/24 07:09:00;;;;;;;;;63.50;50.25;;;;;10.54;100.00;100740.44;5074521;28;45374;-75
2023/02/24 07:11:27;;;;;;;;;63.00;49.50;;;;;10.54;100.00;100743.09;5074103;28;46110;-74
2023/02/24 07:13:53;;;;;;;;;59.75;47.75;;;;;10.42;100.00;100724.03;5058329;28;45442;-74
2023/02/24 07:16:23;;;;;;;;;63.50;48.00;;;;;10.57;100.00;100742.75;5074061;28;45636;-75
2023/02/24 07:18:53;;;;;;;;;62.25;49.25;;;;;10.58;100.00;100747.09;5058846;28;45283;-75
2023/02/24 07:21:19;;;;;;;;;58.25;46.50;;;;;10.54;100.00;100742.31;5058606;28;45433;-75
2023/02/24 07:23:44;;;;;;;;;61.50;48.00;;;;;10.45;100.00;100754.78;5058617;28;45351;-76
2023/02/24 07:26:12;;;;;;;;;61.75;48.75;;;;;10.38;100.00;100740.53;5062701;28;45490;-75
2023/02/24 07:28:39;;;;;;;;;58.25;46.75;;;;;10.39;100.00;100753.63;5077633;28;45261;-74
2023/02/24 07:31:10;;;;;;;;;62.50;49.25;;;;;10.27;100.00;100742.56;5059679;28;46028;-74
2023/02/24 07:33:39;;;;;;;;;55.75;45.00;;;;;10.26;100.00;100740.88;5061915;28;45429;-75
2023/02/24 07:36:08;;;;;;;;;55.50;45.25;;;;;10.23;100.00;100752.69;5062096;28;45266;-75
2023/02/24 07:38:38;;;;;;;;;59.75;45.50;;;;;10.15;100.00;100746.59;5077668;28;45460;-75
2023/02/24 07:41:05;;;;;;;;;55.75;46.25;;;;;10.09;100.00;100746.25;5077604;28;46198;-74
2023/02/24 07:43:34;;;;;;;;;60.50;47.00;;;;;10.00;100.00;100742.00;5076846;28;47237;-74
2023/02/24 07:46:15;;;;;;;;;53.50;42.50;;;;;9.98;100.00;100746.63;5060668;28;45348;-75
2023/02/24 07:48:41;;;;;;;;;61.00;47.25;;;;;10.01;100.00;100746.28;5060435;28;45263;-74
2023/02/24 07:51:07;;;;;;;;;62.00;49.50;;;;;9.94;100.00;100726.72;5061792;28;45302;-75
2023/02/24 07:53:34;;;;;;;;;55.25;44.25;;;;;9.91;100.00;100735.03;5073561;27;48272;-74
2023/02/24 07:55:59;;;;;;;;;59.00;46.00;;;;;9.84;100.00;100729.56;5051176;28;45405;-74
2023/02/24 07:58:27;;;;;;;;;58.50;46.25;;;;;9.84;100.00;100743.66;5076826;28;45461;-74
2023/02/24 08:00:58;;;;;;;;;62.25;49.75;;;;;9.84;100.00;100742.84;5060273;28;47038;-74
2023/02/24 08:03:26;;;;;;;;;64.00;49.25;;;;;9.87;100.00;100739.03;5073723;28;47946;-75
2023/02/24 08:05:57;;;;;;;;;61.75;48.75;;;;;9.95;100.00;100757.59;5068181;28;45509;-74
2023/02/24 08:08:24;;;;;;;;;60.50;47.00;;;;;9.87;100.00;100736.38;5057482;28;45576;-77
2023/02/24 08:10:55;;;;;;;;;56.00;45.25;;;;;9.89;100.00;100742.34;5058413;28;45496;-77
2023/02/24 08:13:20;;;;;;;;;55.00;44.75;;;;;9.89;100.00;100732.56;5074925;27;47173;-75
2023/02/24 08:15:48;;;;;;;;;61.75;46.75;;;;;9.90;100.00;100733.34;5060778;28;45367;-74
2023/02/24 08:18:13;;;;;;;;;53.25;43.50;;;;;9.95;100.00;100737.19;5058455;28;45382;-74
2023/02/24 08:20:51;;;;;;;;;58.00;46.00;;;;;9.97;100.00;100740.47;5060863;28;45305;-76
2023/02/24 08:23:17;;;;;;;;;58.00;45.50;;;;;10.01;100.00;100733.00;5059160;28;47203;-74
2023/02/24 08:25:43;;;;;;;;;51.75;40.25;;;;;10.05;100.00;100730.81;5059613;28;45732;-74
2023/02/24 08:28:10;;;;;;;;;58.75;47.50;;;;;10.08;100.00;100735.81;5074633;28;45292;-73
2023/02/24 08:30:39;;;;;;;;;64.00;49.00;;;;;10.07;100.00;100726.19;5061080;28;45437;-75
2023/02/24 08:33:07;;;;;;;;;67.00;50.50;;;;;10.13;100.00;100725.50;5059841;28;46170;-74
2023/02/24 08:35:36;;;;;;;;;53.00;42.50;;;;;10.09;100.00;100719.69;5060453;28;45229;-74
2023/02/24 08:38:03;;;;;;;;;56.75;43.75;;;;;10.10;100.00;100728.50;5061007;28;45219;-73
2023/02/24 08:42:59;;;;;;;;;61.50;48.25;;;;;10.10;100.00;100715.22;5060432;28;45315;-75
2023/02/24 08:45:32;;;;;;;;;61.75;49.25;;;;;10.16;100.00;100719.84;5060848;28;45326;-75
2023/02/24 08:47:59;;;;;;;;;80.00;67.25;;;;;10.18;100.00;100709.06;5076414;28;45275;-74
2023/02/24 08:50:32;;;;;;;;;52.75;40.75;;;;;10.20;100.00;100705.22;5074986;28;46385;-75
2023/02/24 08:52:59;;;;;;;;;55.50;41.75;;;;;10.19;100.00;100695.59;5059382;28;46380;-75
2023/02/24 08:55:29;;;;;;;;;73.50;56.25;;;;;10.30;100.00;100693.56;5060520;28;45425;-75
2023/02/24 08:58:00;;;;;;;;;95.25;78.25;;;;;10.35;100.00;100689.38;5056369;28;45452;-75
2023/02/24 09:00:47;;;;;;;;;50.50;40.25;;;;;10.41;100.00;100687.84;5060713;28;45388;-79
2023/02/24 09:03:26;;;;;;;;;74.25;54.50;;;;;10.48;100.00;100696.81;5060286;28;45608;-76
2023/02/24 09:05:56;;;;;;;;;88.25;79.75;;;;;10.60;100.00;100693.78;5060227;28;45317;-75
2023/02/24 09:08:22;;;;;;;;;43.00;37.25;;;;;10.57;100.00;100689.59;5076177;28;45237;-75
2023/02/24 09:10:48;;;;;;;;;54.25;43.50;;;;;10.55;100.00;100685.47;5057885;28;46079;-76
2023/02/24 09:13:14;;;;;;;;;42.00;35.75;;;;;10.52;100.00;100691.16;5060248;28;45599;-77
2023/02/24 09:15:43;;;;;;;;;53.50;42.25;;;;;10.51;100.00;100689.50;5075955;28;45845;-76
2023/02/24 09:18:13;;;;;;;;;54.00;43.00;;;;;10.52;100.00;100699.13;5059452;28;45279;-79
2023/02/24 09:21:34;;;;;;;;;49.25;37.75;;;;;10.53;100.00;100693.63;5059790;28;45509;-76
2023/02/24 09:23:45;;;;;;;;;45.33;36.00;;;;;10.53;100.00;100698.13;5059824;28;45409;-76
2023/02/24 09:26:12;;;;;;;;;42.67;36.67;;;;;10.57;100.00;100704.75;5059924;28;45495;-75
2023/02/24 09:28:47;;;;;;;;;49.50;38.50;;;;;10.57;100.00;100708.22;5059630;28;45227;-78
2023/02/24 09:31:17;;;;;;;;;47.67;38.67;;;;;10.65;100.00;100715.31;5075274;28;46435;-75
2023/02/24 09:33:49;;;;;;;;;34.00;31.00;;;;;10.65;100.00;100702.03;5058505;28;47159;-74
2023/02/24 09:36:28;;;;;;;;;50.50;42.25;;;;;10.68;100.00;100698.19;5060167;28;45235;-75
2023/02/24 09:44:41;;;;;;;;;41.33;32.67;;;;;10.69;100.00;100698.00;5049177;28;45499;-77
2023/02/24 09:47:38;;;;;;;;;40.67;35.00;;;;;10.82;100.00;100709.91;5074313;28;45227;-76
2023/02/24 09:50:36;;;;;;;;;44.67;36.00;;;;;10.72;100.00;100697.66;5059318;28;45468;-75
2023/02/24 09:53:17;;;;;;;;;44.25;36.25;;;;;10.69;100.00;100690.03;5062010;28;46551;-76
2023/02/24 09:55:59;;;;;;;;;49.50;38.75;;;;;10.71;100.00;100687.19;5075224;28;48189;-76
2023/02/24 09:58:51;;;;;;;;;39.67;34.67;;;;;10.83;100.00;100704.41;5074174;28;45724;-76
2023/02/24 10:01:42;;;;;;;;;46.00;35.50;;;;;10.85;100.00;100697.09;5059721;28;45307;-78
2023/02/24 10:04:27;;;;;;;;;60.50;46.75;;;;;10.91;100.00;100700.88;5059537;28;45536;-76
2023/02/24 10:07:05;;;;;;;;;45.00;37.00;;;;;10.97;100.00;100686.03;5075261;28;47565;-76
2023/02/24 10:09:51;;;;;;;;;47.00;38.00;;;;;11.11;100.00;100705.72;5060147;28;45382;-77
2023/02/24 10:12:16;;;;;;;;;54.00;44.75;;;;;11.20;100.00;100693.16;5060339;28;45434;-76
2023/02/24 10:15:17;;;;;;;;;53.00;43.50;;;;;11.26;100.00;100686.28;5059828;28;45393;-76
2023/02/24 10:17:46;;;;;;;;;40.00;35.33;;;;;11.36;100.00;100676.22;5059318;28;45390;-74
2023/02/24 10:20:29;;;;;;;;;56.00;43.00;;;;;11.46;100.00;100659.97;5057810;28;45784;-76
2023/02/24 10:23:14;;;;;;;;;42.00;36.25;;;;;11.60;100.00;100672.50;5071670;27;45327;-76
2023/02/24 10:25:55;;;;;;;;;44.00;37.00;;;;;11.58;100.00;100653.22;5070445;28;46248;-76
2023/02/24 10:28:39;;;;;;;;;39.67;35.00;;;;;11.63;100.00;100668.63;5056358;28;46582;-77
2023/02/24 10:31:24;;;;;;;;;49.00;38.25;;;;;11.60;100.00;100655.69;5072527;28;45311;-77
2023/02/24 10:34:12;;;;;;;;;50.25;40.25;;;;;11.68;100.00;100658.28;5057496;28;45601;-76
2023/02/24 10:36:39;;;;;;;;;51.50;38.00;;;;;11.72;100.00;100651.56;5057337;28;46313;-75
2023/02/24 10:39:19;;;;;;;;;61.25;47.50;;;;;11.81;100.00;100657.63;5056280;28;45690;-76
2023/02/24 10:41:48;;;;;;;;;60.50;46.25;;;;;11.83;100.00;100655.59;5053617;28;45433;-77
2023/02/24 10:44:25;;;;;;;;;56.25;44.00;;;;;11.85;100.00;100650.06;5057806;28;45437;-78
2023/02/24 10:47:10;;;;;;;;;65.75;52.25;;;;;11.98;100.00;100642.25;5074112;28;46241;-77
2023/02/24 10:49:56;;;;;;;;;67.75;54.00;;;;;12.11;100.00;100641.63;5054988;28;47187;-75
2023/02/24 10:52:35;;;;;;;;;61.50;47.25;;;;;12.14;100.00;100632.44;5058306;28;45557;-75
2023/02/24 10:55:07;;;;;;;;;96.75;86.75;;;;;12.24;100.00;100637.44;5073319;28;45269;-74
2023/02/24 10:57:46;;;;;;;;;46.00;39.00;;;;;12.25;100.00;100642.59;5057099;28;45424;-74
2023/02/24 11:00:50;;;;;;;;;44.75;36.25;;;;;12.16;100.00;100632.25;5077952;28;47782;-73
2023/02/24 11:03:24;;;;;;;;;43.75;34.75;;;;;12.14;100.00;100634.25;5061014;28;45349;-74
2023/02/24 11:06:07;;;;;;;;;44.75;36.75;;;;;12.00;100.00;100626.09;5062733;28;45219;-74
2023/02/24 11:11:24;;;;;;;;;45.25;38.00;;;;;12.07;100.00;100624.38;5062425;28;45350;-75
2023/02/24 11:19:49;;;;;;;;;45.00;36.67;;;;;12.08;100.00;100611.88;5062269;28;45331;-76
2023/02/24 11:22:19;;;;;;;;;60.75;46.25;;;;;12.17;100.00;100615.25;5061927;28;45434;-75
2023/02/24 11:24:46;;;;;;;;;60.00;46.50;;;;;12.24;100.00;100608.16;5060829;28;46034;-75
2023/02/24 11:27:13;;;;;;;;;69.25;54.50;;;;;12.41;100.00;100598.09;5061998;28;45287;-76
2023/02/24 11:29:54;;;;;;;;;39.33;36.00;;;;;12.53;100.00;100600.22;5060643;28;46255;-75
2023/02/24 11:32:49;;;;;;;;;46.00;37.33;;;;;12.60;100.00;100591.28;5061036;28;45386;-77
2023/02/24 11:35:27;;;;;;;;;41.33;32.67;;;;;12.62;100.00;100570.59;5076691;28;45824;-75
2023/02/24 11:38:02;;;;;;;;;44.33;35.67;;;;;12.72;100.00;100574.78;5060429;28;45374;-75
2023/02/24 11:40:36;;;;;;;;;46.00;38.67;;;;;12.78;100.00;100559.84;5074093;28;46252;-76
2023/02/24 11:43:09;;;;;;;;;42.67;34.33;;;;;12.97;100.00;100553.84;5069983;28;45976;-76
2023/02/24 11:45:53;;;;;;;;;48.00;37.33;;;;;13.17;100.00;100553.13;5077584;28;45786;-76
2023/02/24 11:48:26;;;;;;;;;33.67;32.33;;;;;13.22;100.00;100550.72;5077532;28;45286;-78